createdAt,value
2023-01-12T00:02:00.777Z,6.65
2023-01-12T00:04:30.846Z,8.48
2023-01-12T00:06:58.533Z,13.13
2023-01-12T00:09:26.211Z,11.32
2023-01-12T00:11:53.744Z,8.43
2023-01-12T00:14:22.601Z,11.40
2023-01-12T00:16:50.244Z,9.40
2023-01-12T00:19:19.226Z,8.13
2023-01-12T00:21:56.426Z,10.05
2023-01-12T00:24:28.655Z,9.07
2023-01-12T00:26:57.709Z,11.25
2023-01-12T00:29:27.653Z,8.80
2023-01-12T00:31:57.052Z,10.55
2023-01-12T00:34:26.096Z,9.18
2023-01-12T00:36:55.226Z,10.90
2023-01-12T00:39:23.191Z,11.38
2023-01-12T00:42:08.874Z,12.75
2023-01-12T00:44:55.445Z,7.22
2023-01-12T00:47:23.057Z,8.80
2023-01-12T00:49:50.677Z,7.63
2023-01-12T00:52:30.398Z,7.70
2023-01-12T00:54:58.455Z,7.22
2023-01-12T00:57:26.132Z,9.90
2023-01-12T00:59:57.822Z,8.57
2023-01-12T01:02:25.781Z,8.48
2023-01-12T01:04:53.519Z,9.70
2023-01-12T01:07:22.086Z,6.55
2023-01-12T01:09:50.136Z,8.48
2023-01-12T01:12:18.244Z,5.63
2023-01-12T01:14:47.574Z,5.05
2023-01-12T01:17:16.567Z,6.80
2023-01-12T01:19:44.336Z,8.05
2023-01-12T01:22:12.552Z,8.32
2023-01-12T01:24:41.011Z,5.95
2023-01-12T01:27:08.551Z,9.23
2023-01-12T01:29:36.270Z,4.70
2023-01-12T01:32:03.884Z,7.20
2023-01-12T01:34:33.130Z,6.70
2023-01-12T01:37:00.884Z,7.80
2023-01-12T01:39:28.445Z,9.27
2023-01-12T01:41:56.059Z,7.43
2023-01-12T01:44:53.946Z,10.35
2023-01-12T01:47:26.904Z,6.07
2023-01-12T01:49:59.416Z,7.45
2023-01-12T01:52:31.767Z,7.63
2023-01-12T01:55:03.583Z,5.22
2023-01-12T01:57:35.144Z,8.27
2023-01-12T02:00:03.982Z,10.73
2023-01-12T02:02:33.352Z,10.82
2023-01-12T02:05:02.463Z,7.78
2023-01-12T02:07:30.053Z,7.50
2023-01-12T02:09:57.613Z,13.50
2023-01-12T02:12:42.839Z,6.20
2023-01-12T02:15:28.636Z,4.68
2023-01-12T02:18:10.684Z,4.80
2023-01-12T02:20:56.372Z,5.72
2023-01-12T02:23:44.997Z,9.30
2023-01-12T02:26:31.220Z,6.95
2023-01-12T02:29:31.478Z,4.40
2023-01-12T02:32:06.965Z,8.57
2023-01-12T02:34:41.627Z,9.15
2023-01-12T02:37:17.608Z,7.03
2023-01-12T02:39:50.792Z,4.30
2023-01-12T02:42:42.910Z,7.13
2023-01-12T02:45:23.474Z,4.38
2023-01-12T02:47:57.450Z,4.97
2023-01-12T02:50:32.364Z,6.47
2023-01-12T02:53:05.904Z,4.97
2023-01-12T02:55:35.070Z,3.13
2023-01-12T02:58:05.241Z,7.10
2023-01-12T03:00:35.076Z,5.60
2023-01-12T03:03:03.980Z,2.75
2023-01-12T03:05:31.676Z,5.45
2023-01-12T03:08:02.434Z,4.93
2023-01-12T03:10:58.947Z,3.70
2023-01-12T03:13:29.442Z,5.82
2023-01-12T03:15:59.023Z,6.40
2023-01-12T03:18:32.171Z,5.32
2023-01-12T03:21:04.539Z,4.13
2023-01-12T03:23:37.464Z,7.05
2023-01-12T03:26:09.412Z,7.95
2023-01-12T03:28:39.858Z,4.50
2023-01-12T03:31:11.121Z,4.10
2023-01-12T03:33:41.231Z,8.13
2023-01-12T03:36:20.140Z,3.63
2023-01-12T03:38:57.723Z,4.82
2023-01-12T03:41:35.416Z,4.40
2023-01-12T03:44:06.473Z,6.25
2023-01-12T03:46:40.283Z,3.95
2023-01-12T03:49:14.889Z,4.38
2023-01-12T03:51:47.468Z,6.05
2023-01-12T03:54:18.615Z,6.68
2023-01-12T03:56:51.874Z,4.25
2023-01-12T03:59:19.684Z,4.15
2023-01-12T04:01:48.910Z,5.80
2023-01-12T04:04:17.936Z,3.95
2023-01-12T04:06:45.725Z,3.55
2023-01-12T04:09:13.414Z,8.05
2023-01-12T04:11:58.516Z,6.10
2023-01-12T04:14:26.429Z,6.15
2023-01-12T04:16:54.934Z,3.45
2023-01-12T04:19:23.916Z,8.75
2023-01-12T04:22:09.392Z,8.40
2023-01-12T04:24:36.970Z,7.18
2023-01-12T04:27:04.737Z,9.85
2023-01-12T04:29:32.372Z,7.30
2023-01-12T04:32:00.124Z,5.53
2023-01-12T04:34:29.199Z,6.70
2023-01-12T04:36:56.833Z,6.22
2023-01-12T04:39:24.566Z,8.35
2023-01-12T04:41:52.216Z,9.55
2023-01-12T04:44:20.418Z,7.25
2023-01-12T04:46:49.197Z,6.68
2023-01-12T04:49:17.428Z,5.38
2023-01-12T04:51:46.627Z,9.68
2023-01-12T04:54:20.171Z,4.30
2023-01-12T04:56:47.821Z,10.60
2023-01-12T04:59:15.391Z,8.52
2023-01-12T05:01:43.185Z,5.82
2023-01-12T05:04:11.025Z,5.28
2023-01-12T05:06:38.767Z,7.72
2023-01-12T05:09:27.052Z,6.90
2023-01-12T05:11:54.819Z,5.15
2023-01-12T05:14:22.483Z,6.30
2023-01-12T05:16:50.201Z,8.77
2023-01-12T05:19:17.875Z,4.90
2023-01-12T05:21:45.437Z,6.55
2023-01-12T05:24:14.500Z,6.53
2023-01-12T05:26:42.170Z,7.05
2023-01-12T05:29:11.875Z,7.32
2023-01-12T05:31:39.484Z,5.07
2023-01-12T05:34:07.122Z,5.10
2023-01-12T05:36:34.753Z,3.72
2023-01-12T05:39:02.410Z,3.35
2023-01-12T05:41:31.363Z,5.88
2023-01-12T05:43:58.132Z,6.47
2023-01-12T05:46:27.608Z,4.40
2023-01-12T05:48:56.896Z,7.25
2023-01-12T05:51:26.498Z,5.25
2023-01-12T05:53:55.304Z,6.18
2023-01-12T05:56:26.126Z,5.38
2023-01-12T05:58:56.559Z,3.88
2023-01-12T06:01:25.020Z,5.95
2023-01-12T06:03:54.641Z,5.22
2023-01-12T06:06:23.547Z,5.20
2023-01-12T06:08:52.776Z,5.57
2023-01-12T06:11:38.328Z,4.30
2023-01-12T06:14:08.054Z,4.00
2023-01-12T06:16:38.363Z,4.63
2023-01-12T06:19:06.446Z,5.25
2023-01-12T06:21:35.022Z,2.88
2023-01-12T06:24:03.029Z,5.32
2023-01-12T06:26:30.692Z,3.65
2023-01-12T06:28:58.379Z,5.10
2023-01-12T06:31:27.489Z,5.03
2023-01-12T06:33:55.190Z,3.75
2023-01-12T06:36:22.824Z,3.40
2023-01-12T06:38:50.399Z,6.28
2023-01-12T06:41:31.900Z,4.13
2023-01-12T06:43:59.907Z,7.68
2023-01-12T06:46:29.454Z,3.50
2023-01-12T06:48:58.073Z,6.45
2023-01-12T06:51:25.942Z,5.43
2023-01-12T06:53:54.081Z,4.90
2023-01-12T06:56:21.965Z,4.60
2023-01-12T06:58:49.557Z,5.45
2023-01-12T07:01:17.634Z,6.75
2023-01-12T07:03:46.837Z,10.15
2023-01-12T07:06:15.105Z,5.75
2023-01-12T07:08:43.328Z,7.90
2023-01-12T07:11:12.582Z,5.03
2023-01-12T07:13:40.442Z,4.78
2023-01-12T07:16:08.747Z,5.43
2023-01-12T07:18:36.672Z,5.03
2023-01-12T07:21:10.738Z,7.10
2023-01-12T07:23:38.530Z,4.95
2023-01-12T07:26:06.415Z,6.05
2023-01-12T07:28:34.444Z,5.45
2023-01-12T07:31:03.009Z,4.93
2023-01-12T07:33:31.426Z,7.82
2023-01-12T07:35:59.821Z,5.30
2023-01-12T07:38:30.102Z,4.35
2023-01-12T07:40:59.464Z,4.50
2023-01-12T07:43:26.339Z,5.15
2023-01-12T07:45:54.017Z,8.85
2023-01-12T07:48:22.453Z,4.43
2023-01-12T07:50:50.104Z,4.25
2023-01-12T07:53:17.729Z,3.22
2023-01-12T07:55:46.674Z,4.63
2023-01-12T07:58:14.287Z,2.55
2023-01-12T08:00:41.927Z,4.72
2023-01-12T08:03:11.766Z,5.32
2023-01-12T08:05:39.872Z,3.40
2023-01-12T08:08:07.957Z,3.80
2023-01-12T08:10:35.906Z,3.53
2023-01-12T08:13:04.789Z,3.03
2023-01-12T08:15:36.428Z,1.85
2023-01-12T08:18:08.209Z,3.20
2023-01-12T08:20:37.679Z,1.38
2023-01-12T08:23:10.944Z,2.63
2023-01-12T08:25:44.774Z,3.58
2023-01-12T08:28:19.477Z,1.30
2023-01-12T08:30:50.066Z,2.58
2023-01-12T08:33:17.930Z,2.63
2023-01-12T08:35:47.020Z,1.75
2023-01-12T08:38:14.843Z,1.95
2023-01-12T08:41:08.722Z,2.40
2023-01-12T08:44:06.883Z,2.92
2023-01-12T08:46:36.360Z,3.28
2023-01-12T08:49:05.957Z,2.72
2023-01-12T08:51:34.766Z,2.53
2023-01-12T08:54:02.680Z,3.08
2023-01-12T08:56:30.325Z,1.98
2023-01-12T08:58:59.255Z,1.52
2023-01-12T09:01:27.412Z,2.30
2023-01-12T09:03:56.798Z,1.73
2023-01-12T09:06:26.596Z,3.60
2023-01-12T09:08:56.005Z,1.25
2023-01-12T09:11:24.373Z,1.65
2023-01-12T09:13:51.979Z,2.28
2023-01-12T09:16:21.398Z,2.45
2023-01-12T09:18:51.161Z,1.40
2023-01-12T09:21:22.161Z,1.55
2023-01-12T09:23:50.479Z,1.65
2023-01-12T09:26:21.274Z,7.47
2023-01-12T09:28:49.569Z,3.35
2023-01-12T09:31:19.521Z,6.72
2023-01-12T09:33:49.062Z,8.00
2023-01-12T09:36:18.279Z,7.40
2023-01-12T09:38:47.001Z,3.97
2023-01-12T09:41:18.836Z,5.93
2023-01-12T09:44:03.964Z,8.60
2023-01-12T09:46:54.644Z,5.20
2023-01-12T09:49:28.585Z,6.82
2023-01-12T09:52:02.810Z,7.93
2023-01-12T09:54:30.967Z,3.70
2023-01-12T09:57:06.150Z,2.85
2023-01-12T09:59:45.098Z,3.08
2023-01-12T10:02:14.396Z,4.35
2023-01-12T10:04:43.467Z,1.30
2023-01-12T10:07:15.933Z,3.40
2023-01-12T10:09:44.002Z,1.95
2023-01-12T10:12:20.546Z,1.58
2023-01-12T10:15:20.603Z,1.30
2023-01-12T10:17:52.929Z,2.35
2023-01-12T10:20:28.458Z,3.45
2023-01-12T10:23:00.171Z,2.55
2023-01-12T10:25:35.869Z,1.25
2023-01-12T10:28:08.795Z,2.72
2023-01-12T10:30:39.102Z,2.03
2023-01-12T10:33:11.581Z,2.03
2023-01-12T10:35:50.167Z,1.80
2023-01-12T10:38:25.043Z,1.95
2023-01-12T10:41:17.991Z,1.30
2023-01-12T10:43:50.191Z,2.08
2023-01-12T10:46:19.047Z,2.00
2023-01-12T10:48:48.186Z,2.40
2023-01-12T10:51:26.838Z,2.45
2023-01-12T10:54:01.424Z,1.88
2023-01-12T10:56:35.225Z,2.15
2023-01-12T10:59:16.794Z,1.75
2023-01-12T11:01:49.082Z,1.98
2023-01-12T11:04:21.826Z,3.08
2023-01-12T11:07:05.064Z,2.33
2023-01-12T11:09:32.924Z,1.38
2023-01-12T11:12:02.799Z,1.58
2023-01-12T11:14:33.374Z,2.22
2023-01-12T11:17:22.257Z,2.47
2023-01-12T11:19:51.307Z,0.82
2023-01-12T11:22:27.367Z,0.70
2023-01-12T11:24:58.645Z,0.85
2023-01-12T11:27:32.778Z,1.90
2023-01-12T11:30:05.039Z,1.92
2023-01-12T11:32:38.376Z,1.40
2023-01-12T11:35:17.776Z,0.85
2023-01-12T11:37:47.477Z,2.67
2023-01-12T11:40:23.603Z,1.20
2023-01-12T11:43:11.156Z,2.42
2023-01-12T11:45:44.480Z,1.35
2023-01-12T11:48:22.555Z,1.83
2023-01-12T11:50:54.103Z,1.35
2023-01-12T11:53:25.599Z,1.63
2023-01-12T11:56:16.049Z,1.00
2023-01-12T11:58:52.965Z,2.97
2023-01-12T12:01:25.470Z,2.83
2023-01-12T12:03:59.370Z,1.50
2023-01-12T12:06:43.411Z,3.65
2023-01-12T12:09:36.367Z,2.05
2023-01-12T12:12:08.683Z,2.75
2023-01-12T12:14:50.765Z,2.58
2023-01-12T12:17:24.677Z,2.40
2023-01-12T12:20:02.468Z,3.72
2023-01-12T12:22:42.230Z,4.65
2023-01-12T12:25:23.835Z,3.92
2023-01-12T12:28:18.465Z,4.15
2023-01-12T12:31:09.678Z,2.20
2023-01-12T12:33:53.753Z,3.03
2023-01-12T12:36:30.271Z,2.13
2023-01-12T12:39:36.496Z,3.20
2023-01-12T12:42:38.570Z,3.53
2023-01-12T12:45:20.542Z,3.08
2023-01-12T12:48:02.956Z,3.97
2023-01-12T12:50:33.563Z,2.28
2023-01-12T12:53:08.297Z,2.63
2023-01-12T12:55:37.540Z,1.63
2023-01-12T12:58:26.818Z,2.50
2023-01-12T13:00:56.765Z,2.85
2023-01-12T13:03:46.893Z,3.03
2023-01-12T13:06:22.171Z,1.95
2023-01-12T13:08:52.652Z,3.97
2023-01-12T13:11:21.424Z,1.67
2023-01-12T13:14:01.856Z,1.77
2023-01-12T13:16:48.969Z,4.82
2023-01-12T13:19:36.244Z,4.50
2023-01-12T13:22:27.913Z,5.03
2023-01-12T13:24:56.398Z,3.25
2023-01-12T13:27:51.084Z,2.63
2023-01-12T13:30:40.250Z,3.47
2023-01-12T13:33:23.021Z,4.57
2023-01-12T13:36:03.018Z,4.85
2023-01-12T13:39:00.065Z,3.65
2023-01-12T13:41:44.224Z,3.95
2023-01-12T13:44:15.958Z,4.30
2023-01-12T13:46:47.863Z,5.50
2023-01-12T13:49:31.084Z,2.22
2023-01-12T13:52:00.964Z,3.60
2023-01-12T13:54:29.807Z,5.20
2023-01-12T13:57:02.325Z,4.18
2023-01-12T13:59:30.980Z,7.18
2023-01-12T14:02:00.149Z,4.70
2023-01-12T14:04:48.634Z,4.85
2023-01-12T14:07:27.356Z,5.22
2023-01-12T14:10:05.050Z,6.10
2023-01-12T14:12:55.418Z,3.45
2023-01-12T14:15:45.018Z,2.72
2023-01-12T14:18:16.307Z,6.18
2023-01-12T14:20:48.290Z,3.83
2023-01-12T14:23:25.314Z,3.28
2023-01-12T14:26:07.557Z,4.95
2023-01-12T14:28:36.150Z,4.80
2023-01-12T14:31:05.432Z,5.40
2023-01-12T14:33:36.528Z,6.32
2023-01-12T14:36:06.741Z,5.47
2023-01-12T14:38:35.577Z,4.10
2023-01-12T14:41:07.054Z,6.47
2023-01-12T14:43:54.422Z,3.92
2023-01-12T14:46:27.938Z,3.75
2023-01-12T14:49:01.987Z,6.10
2023-01-12T14:51:34.573Z,4.43
2023-01-12T14:54:17.321Z,4.82
2023-01-12T14:56:50.896Z,4.78
2023-01-12T14:59:23.488Z,5.75
2023-01-12T15:01:52.250Z,2.45
2023-01-12T15:04:24.432Z,5.90
2023-01-12T15:07:04.544Z,15.63
2023-01-12T15:09:34.421Z,5.43
2023-01-12T15:12:26.433Z,2.83
2023-01-12T15:14:54.033Z,7.75
2023-01-12T15:17:39.725Z,10.63
2023-01-12T15:20:45.111Z,5.20
2023-01-12T15:23:30.683Z,7.18
2023-01-12T15:25:58.395Z,6.97
2023-01-12T15:28:28.000Z,8.85
2023-01-12T15:30:55.869Z,8.55
2023-01-12T15:33:23.613Z,8.27
2023-01-12T15:35:52.692Z,6.35
2023-01-12T15:38:20.658Z,5.07
2023-01-12T15:40:48.793Z,8.50
2023-01-12T15:43:17.992Z,9.68
2023-01-12T15:45:47.292Z,8.73
2023-01-12T15:48:15.195Z,5.68
2023-01-12T15:50:44.643Z,8.57
2023-01-12T15:53:17.708Z,9.35
2023-01-12T15:55:45.419Z,11.82
2023-01-12T15:58:14.203Z,7.22
2023-01-12T16:00:44.316Z,9.27
2023-01-12T16:03:28.927Z,11.75
2023-01-12T16:06:00.869Z,9.88
2023-01-12T16:08:29.792Z,11.32
2023-01-12T16:11:13.577Z,11.68
2023-01-12T16:13:42.089Z,9.35
2023-01-12T16:16:16.058Z,11.52
2023-01-12T16:18:43.897Z,9.43
2023-01-12T16:21:16.109Z,11.02
2023-01-12T16:23:45.033Z,8.02
2023-01-12T16:26:12.639Z,12.60
2023-01-12T16:28:40.476Z,11.70
2023-01-12T16:31:10.705Z,9.80
2023-01-12T16:33:38.932Z,18.75
2023-01-12T16:36:07.331Z,12.40
2023-01-12T16:38:35.235Z,7.72
2023-01-12T16:41:08.797Z,11.73
2023-01-12T16:43:37.948Z,10.25
2023-01-12T16:46:06.262Z,7.40
2023-01-12T16:48:34.699Z,11.15
2023-01-12T16:51:02.287Z,7.43
2023-01-12T16:53:30.502Z,6.40
2023-01-12T16:56:03.139Z,6.63
2023-01-12T16:58:32.195Z,8.88
2023-01-12T17:01:01.260Z,10.95
2023-01-12T17:03:29.256Z,9.27
2023-01-12T17:05:56.957Z,10.93
2023-01-12T17:08:24.640Z,18.02
2023-01-12T17:10:52.295Z,12.27
2023-01-12T17:13:20.067Z,10.60
2023-01-12T17:15:49.393Z,8.65
2023-01-12T17:18:17.046Z,9.75
2023-01-12T17:20:44.905Z,7.82
2023-01-12T17:23:12.688Z,7.43
2023-01-12T17:25:40.412Z,9.55
2023-01-12T17:28:08.521Z,21.55
2023-01-12T17:30:36.168Z,9.85
2023-01-12T17:33:05.355Z,7.13
2023-01-12T17:35:35.611Z,5.22
2023-01-12T17:38:03.580Z,7.10
2023-01-12T17:40:31.677Z,6.03
2023-01-12T17:43:07.715Z,3.85
2023-01-12T17:45:42.224Z,4.60
2023-01-12T17:48:11.857Z,3.30
2023-01-12T17:50:40.187Z,5.45
2023-01-12T17:53:09.472Z,12.80
2023-01-12T17:55:47.649Z,8.45
2023-01-12T17:58:17.410Z,10.10
2023-01-12T18:00:45.343Z,5.82
2023-01-12T18:03:14.376Z,5.85
2023-01-12T18:05:44.575Z,4.68
2023-01-12T18:08:12.312Z,3.63
2023-01-12T18:10:39.804Z,4.75
2023-01-12T18:13:07.686Z,5.18
2023-01-12T18:15:35.372Z,11.45
2023-01-12T18:18:03.047Z,4.60
2023-01-12T18:20:31.980Z,5.72
2023-01-12T18:23:00.893Z,11.57
2023-01-12T18:25:28.480Z,8.98
2023-01-12T18:27:56.113Z,7.13
2023-01-12T18:30:23.663Z,8.85
2023-01-12T18:32:51.264Z,6.40
2023-01-12T18:35:18.794Z,5.55
2023-01-12T18:37:47.893Z,7.72
2023-01-12T18:40:15.613Z,7.35
2023-01-12T18:42:54.588Z,9.15
2023-01-12T18:45:24.076Z,4.15
2023-01-12T18:48:09.695Z,4.47
2023-01-12T18:50:55.420Z,3.78
2023-01-12T18:53:25.210Z,3.67
2023-01-12T18:55:56.945Z,4.18
2023-01-12T18:58:27.175Z,3.85
2023-01-12T19:00:55.036Z,4.20
2023-01-12T19:03:22.596Z,5.07
2023-01-12T19:05:59.434Z,3.42
2023-01-12T19:08:47.276Z,5.47
2023-01-12T19:11:16.812Z,4.13
2023-01-12T19:14:02.113Z,4.75
2023-01-12T19:16:47.417Z,5.97
2023-01-12T19:19:15.112Z,5.05
2023-01-12T19:22:00.433Z,3.30
2023-01-12T19:24:47.305Z,3.10
2023-01-12T19:27:32.618Z,6.00
2023-01-12T19:30:00.548Z,4.95
2023-01-12T19:32:28.126Z,3.13
2023-01-12T19:35:02.256Z,3.55
2023-01-12T19:37:33.936Z,3.25
2023-01-12T19:40:07.268Z,4.78
2023-01-12T19:42:52.342Z,4.28
2023-01-12T19:45:19.910Z,3.67
2023-01-12T19:47:48.524Z,6.38
2023-01-12T19:50:16.232Z,2.92
2023-01-12T19:52:44.425Z,2.30
2023-01-12T19:55:15.194Z,2.22
2023-01-12T19:57:43.973Z,3.38
2023-01-12T20:00:15.236Z,3.53
2023-01-12T20:02:44.047Z,3.20
2023-01-12T20:05:13.569Z,3.60
2023-01-12T20:07:41.426Z,2.65
2023-01-12T20:10:10.235Z,3.50
2023-01-12T20:12:39.218Z,5.32
2023-01-12T20:15:08.014Z,3.55
2023-01-12T20:17:35.873Z,4.50
2023-01-12T20:20:03.632Z,3.42
2023-01-12T20:22:31.197Z,3.90
2023-01-12T20:25:01.126Z,4.22
2023-01-12T20:27:28.991Z,4.72
2023-01-12T20:29:58.260Z,4.88
2023-01-12T20:32:26.547Z,4.72
2023-01-12T20:34:54.078Z,5.97
2023-01-12T20:37:21.698Z,5.43
2023-01-12T20:39:49.663Z,4.50
2023-01-12T20:42:17.247Z,5.78
2023-01-12T20:44:44.895Z,4.63
2023-01-12T20:47:13.925Z,6.28
2023-01-12T20:49:41.573Z,9.70
2023-01-12T20:52:09.201Z,6.75
2023-01-12T20:54:36.742Z,4.57
2023-01-12T20:57:04.847Z,3.63
2023-01-12T20:59:32.785Z,6.07
2023-01-12T21:02:00.639Z,3.28
2023-01-12T21:04:30.323Z,7.63
2023-01-12T21:06:58.104Z,3.90
2023-01-12T21:09:26.001Z,4.15
2023-01-12T21:11:53.987Z,4.32
2023-01-12T21:14:23.259Z,5.60
2023-01-12T21:16:50.947Z,4.30
2023-01-12T21:19:21.368Z,5.40
2023-01-12T21:21:50.373Z,4.43
2023-01-12T21:24:18.010Z,3.53
2023-01-12T21:26:46.499Z,3.53
2023-01-12T21:29:14.382Z,4.53
2023-01-12T21:31:42.073Z,3.83
2023-01-12T21:34:09.801Z,3.88
2023-01-12T21:36:37.468Z,5.20
2023-01-12T21:39:06.435Z,5.38
2023-01-12T21:41:55.225Z,3.63
2023-01-12T21:44:22.846Z,3.83
2023-01-12T21:46:50.577Z,4.05
2023-01-12T21:49:18.209Z,4.50
2023-01-12T21:51:45.724Z,5.10
2023-01-12T21:54:14.808Z,5.82
2023-01-12T21:56:42.406Z,6.03
2023-01-12T21:59:11.376Z,5.80
2023-01-12T22:01:39.360Z,3.75
2023-01-12T22:04:07.352Z,5.43
2023-01-12T22:06:34.946Z,4.38
2023-01-12T22:09:02.594Z,3.58
2023-01-12T22:11:31.573Z,4.65
2023-01-12T22:13:59.185Z,4.05
2023-01-12T22:16:27.146Z,3.80
2023-01-12T22:18:54.749Z,5.20
2023-01-12T22:21:22.457Z,5.88
2023-01-12T22:23:50.649Z,3.85
2023-01-12T22:26:19.574Z,3.90
2023-01-12T22:28:49.196Z,3.75
2023-01-12T22:31:18.769Z,4.03
2023-01-12T22:33:47.392Z,3.72
2023-01-12T22:36:15.435Z,4.75
2023-01-12T22:38:43.201Z,5.32
2023-01-12T22:41:12.395Z,4.00
2023-01-12T22:43:41.365Z,3.10
2023-01-12T22:46:20.661Z,3.75
2023-01-12T22:48:49.823Z,3.78
2023-01-12T22:51:17.468Z,3.20
2023-01-12T22:53:45.495Z,4.60
2023-01-12T22:56:13.025Z,3.72
2023-01-12T22:58:41.182Z,3.50
2023-01-12T23:01:10.978Z,3.30
2023-01-12T23:03:40.319Z,3.15
2023-01-12T23:06:12.180Z,3.90
2023-01-12T23:08:40.089Z,3.88
2023-01-12T23:11:09.610Z,4.60
2023-01-12T23:13:37.828Z,2.50
2023-01-12T23:16:08.325Z,2.45
2023-01-12T23:18:38.905Z,3.85
2023-01-12T23:21:11.258Z,3.70
2023-01-12T23:23:39.347Z,4.88
2023-01-12T23:26:08.973Z,4.28
2023-01-12T23:28:41.133Z,4.13
2023-01-12T23:31:11.475Z,5.85
2023-01-12T23:33:40.249Z,3.88
2023-01-12T23:36:11.743Z,3.83
2023-01-12T23:38:39.484Z,5.38
2023-01-12T23:41:11.785Z,4.00
2023-01-12T23:43:39.958Z,4.95
2023-01-12T23:46:08.330Z,5.10
2023-01-12T23:48:36.230Z,3.33
2023-01-12T23:51:04.724Z,3.05
2023-01-12T23:53:33.922Z,2.85
2023-01-12T23:56:05.780Z,2.15
2023-01-12T23:58:34.137Z,3.80
